Time;durP1;ratioP1;P1;durP2;ratioP2;P2;SDS_P1;SDS_P2;PMS_P1;PMS_P2;Temp;Humidity;BMP_temperature;BMP_pressure;BME280_temperature;BME280_humidity;BME280_pressure;Samples;Min_cycle;Max_cycle;Signal;HPM_P1;HPM_P2
2022/05/07 00:00:36;;;;;;;4.40;2.30;;;;;;;8.72;77.24;96173.19;5046108;28;20543;-79
2022/05/07 00:03:01;;;;;;;4.27;2.30;;;;;;;8.71;77.18;96171.56;5064691;28;20172;-79
2022/05/07 00:05:27;;;;;;;2.30;2.10;;;;;;;8.74;77.14;96167.91;5045380;28;20196;-80
2022/05/07 00:07:52;;;;;;;3.13;2.53;;;;;;;8.73;77.40;96167.06;5029949;28;20445;-79
2022/05/07 00:10:17;;;;;;;5.43;2.57;;;;;;;8.72;76.98;96173.19;5045837;28;20234;-79
2022/05/07 00:12:43;;;;;;;3.93;2.87;;;;;;;8.71;77.18;96168.16;5030328;28;20187;-79
2022/05/07 00:15:09;;;;;;;4.40;2.57;;;;;;;8.72;77.25;96168.03;5022707;28;20234;-78
2022/05/07 00:20:18;;;;;;;3.67;3.00;;;;;;;8.71;76.93;96168.16;5040167;28;20201;-79
2022/05/07 00:22:44;;;;;;;4.07;2.50;;;;;;;8.71;77.08;96168.16;5022744;28;20174;-77
2022/05/07 00:25:09;;;;;;;3.70;2.50;;;;;;;8.75;76.91;96159.22;5005816;28;20210;-79
2022/05/07 00:27:35;;;;;;;4.53;2.57;;;;;;;8.70;76.94;96164.75;5005460;28;20297;-77
2022/05/07 00:30:00;;;;;;;5.00;2.57;;;;;;;8.67;77.09;96153.81;5022140;28;20240;-79
2022/05/07 00:32:26;;;;;;;5.43;2.50;;;;;;;8.61;77.39;96152.53;5010766;28;20194;-79
2022/05/07 00:34:52;;;;;;;2.67;2.30;;;;;;;8.57;77.98;96158.91;5022373;28;20212;-78
2022/05/07 00:37:17;;;;;;;5.07;2.70;;;;;;;8.54;78.46;96148.75;5003739;28;20186;-77
2022/05/07 00:39:42;;;;;;;2.93;2.57;;;;;;;8.49;78.48;96148.31;5020947;28;20175;-78
2022/05/07 00:42:08;;;;;;;6.10;3.23;;;;;;;8.46;78.78;96149.34;5020623;28;20178;-77
2022/05/07 00:44:33;;;;;;;2.57;2.37;;;;;;;8.45;78.94;96147.72;5020916;28;20264;-78
2022/05/07 00:47:17;;;;;;;3.40;2.93;;;;;;;8.41;79.23;96148.91;5020927;28;20515;-79
2022/05/07 00:49:43;;;;;;;4.53;2.90;;;;;;;8.40;79.26;96142.09;5024126;28;20244;-78
2022/05/07 00:52:09;;;;;;;3.67;2.67;;;;;;;8.35;79.32;96139.03;5007369;28;20170;-79
2022/05/07 00:54:34;;;;;;;4.47;2.80;;;;;;;8.35;79.33;96143.38;5006376;28;20621;-79
2022/05/07 00:56:59;;;;;;;3.87;2.60;;;;;;;8.33;79.70;96140.06;5023028;28;20814;-79
2022/05/07 00:59:25;;;;;;;2.97;2.40;;;;;;;8.30;79.84;96140.28;5007424;28;20181;-79
2022/05/07 01:01:50;;;;;;;5.93;2.77;;;;;;;8.30;79.87;96137.69;5006248;28;20227;-79
2022/05/07 01:04:15;;;;;;;3.87;2.53;;;;;;;8.25;80.49;96138.06;5006302;28;20207;-78
2022/05/07 01:06:41;;;;;;;2.60;2.40;;;;;;;8.20;80.67;96135.81;5006173;28;20189;-78
2022/05/07 01:09:07;;;;;;;6.10;2.70;;;;;;;8.19;80.50;96138.53;5022231;28;20281;-78
2022/05/07 01:11:33;;;;;;;3.43;2.57;;;;;;;8.18;80.61;96132.53;5005628;28;20182;-78
2022/05/07 01:13:58;;;;;;;3.03;2.37;;;;;;;8.17;80.37;96141.25;5021498;28;20730;-78
2022/05/07 01:16:24;;;;;;;3.70;2.60;;;;;;;8.16;80.47;96137.00;5022248;28;20187;-79
2022/05/07 01:18:49;;;;;;;4.60;2.53;;;;;;;8.15;80.19;96132.78;5022238;28;20632;-78
2022/05/07 01:21:17;;;;;;;3.70;2.70;;;;;;;8.18;80.30;96135.13;5019842;28;20183;-78
2022/05/07 01:23:43;;;;;;;3.93;2.80;;;;;;;8.19;79.79;96134.19;5005837;28;20186;-79
2022/05/07 01:26:09;;;;;;;3.40;2.53;;;;;;;8.21;79.70;96147.81;5028466;28;20208;-78
2022/05/07 01:28:34;;;;;;;3.70;2.33;;;;;;;8.19;79.43;96139.34;5026610;28;20197;-78
2022/05/07 01:31:00;;;;;;;4.30;2.87;;;;;;;8.19;79.71;96136.75;5025375;28;20663;-79
2022/05/07 01:33:25;;;;;;;3.23;2.93;;;;;;;8.23;79.48;96135.59;5042153;28;20178;-78
2022/05/07 01:35:50;;;;;;;3.93;2.40;;;;;;;8.20;79.27;96145.34;5041023;28;20718;-78
2022/05/07 01:38:16;;;;;;;4.17;2.60;;;;;;;8.19;79.34;96138.53;5040489;28;20178;-78
2022/05/07 01:40:41;;;;;;;4.83;2.47;;;;;;;8.21;79.21;96134.06;5025621;28;20597;-79
2022/05/07 01:43:06;;;;;;;3.37;2.30;;;;;;;8.18;79.35;96137.72;5040007;28;20185;-77
2022/05/07 01:45:32;;;;;;;3.13;2.83;;;;;;;8.15;79.44;96135.38;5023867;28;20221;-78
2022/05/07 01:48:09;;;;;;;2.47;2.27;;;;;;;8.15;79.46;96137.13;5022341;28;20201;-78
2022/05/07 01:50:36;;;;;;;4.00;2.93;;;;;;;8.17;79.18;96136.06;5038654;28;20174;-78
2022/05/07 01:53:01;;;;;;;9.87;5.63;;;;;;;8.17;79.22;96143.00;5022587;28;20327;-78
2022/05/07 01:55:27;;;;;;;6.20;3.97;;;;;;;8.18;79.04;96145.47;5021657;28;20288;-78
2022/05/07 01:57:52;;;;;;;5.50;3.43;;;;;;;8.16;78.82;96142.19;5022368;28;20272;-78
2022/05/07 02:00:17;;;;;;;4.37;3.03;;;;;;;8.23;79.05;96142.53;5022305;28;20588;-78
2022/05/07 02:02:43;;;;;;;3.67;3.03;;;;;;;8.21;78.85;96142.63;5041180;28;20174;-78
2022/05/07 02:05:08;;;;;;;2.97;2.47;;;;;;;8.24;78.58;96137.25;5024964;28;20647;-78
2022/05/07 02:07:34;;;;;;;2.83;2.40;;;;;;;8.24;78.64;96136.44;5025018;28;20205;-79
2022/05/07 02:09:59;;;;;;;3.83;2.63;;;;;;;8.28;78.35;96137.81;5042350;28;20173;-79
2022/05/07 02:12:24;;;;;;;6.20;3.07;;;;;;;8.27;78.37;96145.72;5024615;28;20178;-79
2022/05/07 02:14:50;;;;;;;4.33;2.90;;;;;;;8.32;78.28;96143.59;5041249;28;20605;-78
2022/05/07 02:17:15;;;;;;;3.00;2.80;;;;;;;8.40;77.85;96142.09;5042167;28;20175;-79
2022/05/07 02:19:40;;;;;;;4.60;2.90;;;;;;;8.39;77.86;96135.28;5025265;28;20647;-78
2022/05/07 02:22:05;;;;;;;5.33;3.17;;;;;;;8.40;77.88;96129.16;5038386;28;20178;-78
2022/05/07 02:24:31;;;;;;;3.57;2.70;;;;;;;8.41;77.87;96132.56;5039208;28;20228;-79
2022/05/07 02:26:56;;;;;;;4.80;2.77;;;;;;;8.39;77.54;96131.84;5040956;28;20701;-79
2022/05/07 02:29:21;;;;;;;3.07;2.70;;;;;;;8.33;77.75;96130.53;5041476;28;20205;-78
2022/05/07 02:32:06;;;;;;;3.40;2.87;;;;;;;8.29;77.68;96129.13;5040956;28;20273;-77
2022/05/07 02:34:37;;;;;;;3.70;2.50;;;;;;;8.27;77.64;96128.41;5041953;28;20228;-78
2022/05/07 02:37:04;;;;;;;5.43;2.63;;;;;;;8.28;77.83;96137.00;5048773;28;20170;-78
2022/05/07 02:39:29;;;;;;;3.30;2.63;;;;;;;8.43;76.93;96141.03;5055199;28;20176;-78
2022/05/07 02:44:39;;;;;;;3.30;2.70;;;;;;;8.08;78.65;96133.38;5043982;28;20364;-78
2022/05/07 02:47:04;;;;;;;5.13;2.67;;;;;;;8.07;78.96;96137.72;5024020;28;20696;-78
2022/05/07 02:49:31;;;;;;;8.00;3.50;;;;;;;8.03;79.05;96133.72;5040060;28;20174;-78
2022/05/07 02:51:56;;;;;;;3.47;3.13;;;;;;;8.01;79.29;96132.19;5040680;28;20205;-78
2022/05/07 02:54:21;;;;;;;3.77;2.97;;;;;;;8.04;79.12;96134.53;5024999;28;20252;-79
2022/05/07 02:56:47;;;;;;;5.47;2.97;;;;;;;7.99;79.24;96134.06;5043259;28;20173;-78
2022/05/07 02:59:12;;;;;;;4.07;3.30;;;;;;;7.91;79.57;96135.47;5027977;28;20185;-79
2022/05/07 03:01:37;;;;;;;3.37;2.80;;;;;;;7.84;80.01;96125.72;5030139;28;20186;-78
2022/05/07 03:04:03;;;;;;;3.67;2.93;;;;;;;7.75;80.64;96129.00;5046544;28;20643;-79
2022/05/07 03:06:28;;;;;;;3.07;2.77;;;;;;;7.71;80.60;96127.59;5045990;28;20244;-78
2022/05/07 03:08:53;;;;;;;4.00;2.90;;;;;;;7.63;81.37;96123.81;5029212;28;20206;-79
2022/05/07 03:11:18;;;;;;;3.87;3.40;;;;;;;7.60;81.42;96120.66;5064258;28;20177;-79
2022/05/07 03:13:44;;;;;;;4.83;3.27;;;;;;;7.55;81.89;96112.41;5046069;28;20243;-79
2022/05/07 03:16:10;;;;;;;6.30;3.47;;;;;;;7.54;81.98;96116.75;5045984;28;20589;-78
2022/05/07 03:18:35;;;;;;;4.03;3.17;;;;;;;7.50;82.21;96120.50;5046160;28;20166;-79
2022/05/07 03:21:01;;;;;;;5.17;3.30;;;;;;;7.50;82.24;96120.50;5029588;28;20192;-79
2022/05/07 03:23:27;;;;;;;6.50;3.53;;;;;;;7.52;82.29;96117.81;5046306;28;20177;-79
2022/05/07 03:25:52;;;;;;;4.43;2.87;;;;;;;7.58;82.37;96123.34;5045582;28;20262;-79
2022/05/07 03:28:18;;;;;;;3.83;2.97;;;;;;;7.66;81.55;96121.00;5026471;28;20198;-78
2022/05/07 03:30:43;;;;;;;3.63;3.07;;;;;;;7.67;81.70;96125.22;5026021;28;20181;-78
2022/05/07 03:33:08;;;;;;;4.40;2.83;;;;;;;7.70;81.40;96115.63;5025799;28;20687;-80
2022/05/07 03:35:34;;;;;;;5.50;3.10;;;;;;;7.72;81.53;96124.06;5042473;28;20196;-78
2022/05/07 03:37:59;;;;;;;4.73;3.30;;;;;;;7.79;81.29;96122.69;5041270;28;20189;-77
2022/05/07 03:40:24;;;;;;;5.63;2.87;;;;;;;7.75;81.38;96122.06;5040900;28;20241;-77
2022/05/07 03:42:50;;;;;;;3.33;2.90;;;;;;;7.71;81.39;96118.06;5024652;28;20181;-77
2022/05/07 03:45:15;;;;;;;6.70;3.00;;;;;;;7.72;81.70;96117.13;5040067;28;20264;-78
2022/05/07 03:47:40;;;;;;;6.37;3.50;;;;;;;7.72;81.90;96119.72;5042539;28;20209;-78
2022/05/07 03:50:06;;;;;;;5.07;3.20;;;;;;;7.81;81.19;96120.78;5025707;28;20236;-78
2022/05/07 03:55:16;;;;;;;4.50;2.90;;;;;;;7.74;81.00;96117.84;5044519;28;20224;-78
2022/05/07 03:57:41;;;;;;;3.30;2.87;;;;;;;7.77;81.26;96117.59;5025229;28;20173;-78
2022/05/07 04:00:07;;;;;;;4.07;2.80;;;;;;;7.76;81.06;96115.94;5025974;28;20205;-78
2022/05/07 04:02:35;;;;;;;5.93;3.27;;;;;;;7.79;80.96;96126.09;5025490;28;20182;-77
2022/05/07 04:05:01;;;;;;;3.77;2.90;;;;;;;7.84;81.17;96123.13;5025049;28;20579;-78
2022/05/07 04:07:26;;;;;;;5.23;3.17;;;;;;;7.91;80.73;96125.13;5042479;28;20332;-78
2022/05/07 04:09:54;;;;;;;3.87;2.90;;;;;;;7.93;80.50;96122.44;5042017;28;20212;-77
2022/05/07 04:12:20;;;;;;;4.23;3.07;;;;;;;8.00;80.38;96126.19;5044242;28;20526;-79
2022/05/07 04:14:45;;;;;;;4.97;3.27;;;;;;;8.05;80.12;96121.50;5044882;28;20209;-78
2022/05/07 04:17:10;;;;;;;3.17;2.77;;;;;;;8.15;79.65;96127.59;5045107;28;20177;-79
2022/05/07 04:19:36;;;;;;;8.37;4.23;;;;;;;8.19;79.35;96129.00;5028938;28;20204;-79
2022/05/07 04:22:02;;;;;;;3.83;3.33;;;;;;;8.28;79.06;96126.66;5028401;28;20289;-79
2022/05/07 04:24:28;;;;;;;7.33;3.97;;;;;;;8.37;78.99;96136.31;5026457;28;20571;-78
2022/05/07 04:26:53;;;;;;;5.23;2.90;;;;;;;8.42;78.62;96131.63;5042086;28;20181;-78
2022/05/07 04:29:19;;;;;;;4.97;3.00;;;;;;;8.52;77.95;96129.94;5041683;28;20186;-78
2022/05/07 04:31:44;;;;;;;5.03;3.13;;;;;;;8.61;77.86;96131.81;5041563;28;20180;-77
2022/05/07 04:34:10;;;;;;;5.13;2.63;;;;;;;8.72;77.61;96134.38;5024271;28;20198;-78
2022/05/07 04:36:35;;;;;;;6.83;3.27;;;;;;;8.85;76.99;96136.00;5025838;28;20181;-78
2022/05/07 04:39:01;;;;;;;3.73;3.03;;;;;;;8.96;76.35;96135.94;5024931;28;20276;-78
2022/05/07 04:41:26;;;;;;;4.13;2.93;;;;;;;9.04;76.17;96130.97;5041703;28;20197;-78
2022/05/07 04:43:51;;;;;;;3.33;2.53;;;;;;;9.11;75.59;96142.50;5060656;28;20185;-79
2022/05/07 04:46:17;;;;;;;4.30;3.17;;;;;;;9.24;75.71;96137.13;5028005;28;20637;-79
2022/05/07 04:48:43;;;;;;;3.13;2.83;;;;;;;10.04;74.50;96133.91;5034167;28;20206;-78
2022/05/07 04:51:08;;;;;;;5.43;2.87;;;;;;;12.27;66.84;96143.47;5035812;28;20184;-79
2022/05/07 04:53:33;;;;;;;2.60;2.40;;;;;;;14.41;59.34;96135.56;5034155;28;20189;-77
2022/05/07 04:55:59;;;;;;;5.10;2.30;;;;;;;15.74;51.47;96143.38;5048409;28;20703;-77
2022/05/07 04:58:24;;;;;;;5.87;2.13;;;;;;;16.58;48.98;96147.28;5026377;28;20182;-79
2022/05/07 05:00:49;;;;;;;3.50;2.28;;;;;;;16.97;46.99;96146.47;5028400;28;20181;-79
2022/05/07 05:03:15;;;;;;;5.70;2.20;;;;;;;17.77;45.52;96148.72;5028106;28;20177;-79
2022/05/07 05:05:41;;;;;;;5.70;2.35;;;;;;;18.56;43.67;96149.09;5043503;28;20268;-80
2022/05/07 05:08:06;;;;;;;5.70;2.22;;;;;;;18.34;42.96;96153.44;5044385;28;20202;-79
2022/05/07 05:10:32;;;;;;;4.38;2.20;;;;;;;18.71;42.34;96156.97;5028744;28;20194;-80
2022/05/07 05:12:57;;;;;;;5.45;2.08;;;;;;;19.12;42.46;96159.91;5027806;28;20182;-79
2022/05/07 05:15:22;;;;;;;3.17;1.98;;;;;;;19.79;41.12;96159.59;5061249;28;20197;-80
2022/05/07 05:17:48;;;;;;;3.85;2.10;;;;;;;19.27;41.72;96160.69;5062198;28;20195;-79
2022/05/07 05:20:14;;;;;;;4.05;2.00;;;;;;;19.19;41.46;96161.63;5044132;28;20174;-79
2022/05/07 05:22:46;;;;;;;3.13;2.33;;;;;;;18.50;43.86;96155.06;5043271;28;20188;-79
2022/05/07 05:25:11;;;;;;;3.13;2.20;;;;;;;17.88;44.61;96155.38;5026398;28;20206;-79
2022/05/07 05:27:36;;;;;;;2.78;2.35;;;;;;;17.76;46.23;96154.97;5062066;28;20194;-80
2022/05/07 05:30:02;;;;;;;3.92;2.10;;;;;;;16.90;48.93;96158.66;5028048;28;20185;-80
2022/05/07 05:32:27;;;;;;;3.00;2.22;;;;;;;16.28;50.40;96159.34;5027846;28;20178;-80
2022/05/07 05:34:52;;;;;;;5.85;2.50;;;;;;;15.84;51.11;96159.75;5043632;28;20197;-80
2022/05/07 05:37:18;;;;;;;3.55;2.47;;;;;;;15.67;52.89;96154.69;5063115;28;20178;-79
2022/05/07 05:39:44;;;;;;;3.53;2.63;;;;;;;15.67;51.80;96157.28;5026744;28;20185;-79
2022/05/07 05:42:09;;;;;;;4.05;2.50;;;;;;;16.19;51.16;96162.97;5027550;28;20270;-79
2022/05/07 05:44:37;;;;;;;2.85;2.55;;;;;;;17.06;48.34;96168.25;5042083;28;20202;-79
2022/05/07 05:47:02;;;;;;;3.97;2.10;;;;;;;17.68;46.67;96171.59;5043174;28;20184;-79
2022/05/07 05:49:27;;;;;;;4.65;2.35;;;;;;;18.39;45.03;96174.75;5042825;28;20241;-79
2022/05/07 05:51:53;;;;;;;3.63;2.30;;;;;;;19.66;41.78;96180.53;5042638;28;20174;-80
2022/05/07 05:54:18;;;;;;;3.13;2.25;;;;;;;20.54;40.13;96174.75;5041957;28;20240;-79
2022/05/07 05:56:43;;;;;;;7.53;2.92;;;;;;;21.65;36.82;96185.97;5040992;28;20174;-80
2022/05/07 05:59:08;;;;;;;5.35;2.90;;;;;;;21.91;35.51;96179.88;5039208;28;20182;-78
2022/05/07 06:01:34;;;;;;;4.22;2.55;;;;;;;22.79;34.33;96179.56;5039396;28;20181;-79
2022/05/07 06:03:59;;;;;;;5.47;2.53;;;;;;;22.62;33.22;96176.59;5022794;28;20181;-78
2022/05/07 06:06:24;;;;;;;3.97;2.80;;;;;;;23.30;32.12;96176.94;5039717;28;20182;-79
2022/05/07 06:08:50;;;;;;;2.50;2.30;;;;;;;23.35;31.14;96178.97;5039948;28;20259;-79
2022/05/07 06:11:15;;;;;;;4.45;2.20;;;;;;;24.35;29.74;96177.28;5057499;28;20170;-80
2022/05/07 06:13:42;;;;;;;4.30;2.60;;;;;;;24.57;29.45;96181.16;5054316;28;20568;-82
2022/05/07 06:16:07;;;;;;;5.95;2.45;;;;;;;23.99;31.23;96181.44;5038026;28;20686;-80
2022/05/07 06:18:33;;;;;;;2.70;2.50;;;;;;;23.84;30.11;96185.41;5037763;28;20227;-81
2022/05/07 06:21:01;;;;;;;5.95;5.20;;;;;;;22.69;31.94;96182.66;5016020;28;20227;-79
2022/05/07 06:23:26;;;;;;;4.82;3.80;;;;;;;24.14;29.35;96183.78;5038886;28;20213;-79
2022/05/07 06:28:36;;;;;;;6.43;3.58;;;;;;;23.63;30.28;96183.94;5040452;28;20273;-80
2022/05/07 06:31:01;;;;;;;5.53;3.70;;;;;;;22.72;33.00;96190.19;5039484;28;20182;-79
2022/05/07 06:33:28;;;;;;;4.95;2.17;;;;;;;24.05;31.17;96185.06;5022556;28;20178;-80
2022/05/07 06:35:53;;;;;;;3.95;2.42;;;;;;;24.86;29.75;96187.59;5042277;28;20197;-79
2022/05/07 06:38:18;;;;;;;5.40;2.20;;;;;;;23.95;31.47;96182.91;5042171;28;20174;-78
2022/05/07 06:40:44;;;;;;;2.33;2.03;;;;;;;25.26;28.71;96197.75;5024321;28;20181;-78
2022/05/07 06:43:09;;;;;;;3.42;2.20;;;;;;;22.50;32.72;96189.63;5043565;28;20204;-78
2022/05/07 06:45:35;;;;;;;4.25;2.78;;;;;;;23.49;31.59;96191.13;5042261;28;20201;-79
2022/05/07 06:48:00;;;;;;;3.83;2.42;;;;;;;24.99;28.92;96197.25;5043363;28;20198;-79
2022/05/07 06:50:26;;;;;;;3.28;2.50;;;;;;;22.98;32.50;96191.19;5041904;28;20181;-79
2022/05/07 06:52:52;;;;;;;3.10;2.17;;;;;;;23.05;31.84;96190.09;5023903;28;20674;-78
2022/05/07 06:55:18;;;;;;;6.07;2.75;;;;;;;21.68;34.74;96198.75;5039955;28;20202;-78
2022/05/07 06:57:45;;;;;;;4.82;2.75;;;;;;;20.80;35.47;96197.81;5043917;28;20189;-78
2022/05/07 07:00:12;;;;;;;4.57;2.80;;;;;;;21.83;33.93;96198.59;5042119;28;20219;-81
2022/05/07 07:02:38;;;;;;;2.85;2.53;;;;;;;21.60;34.47;96190.22;5042040;28;20182;-79
2022/05/07 07:05:03;;;;;;;3.30;2.53;;;;;;;22.54;33.18;96193.50;5024770;28;20212;-79
2022/05/07 07:07:29;;;;;;;3.38;2.30;;;;;;;22.83;33.46;96188.75;5043399;28;20198;-79
2022/05/07 07:09:55;;;;;;;4.03;2.60;;;;;;;23.02;31.92;96198.47;5042610;28;20177;-79
2022/05/07 07:12:20;;;;;;;4.82;2.70;;;;;;;23.31;31.36;96196.31;5042995;28;20269;-78
2022/05/07 07:14:49;;;;;;;8.20;2.95;;;;;;;21.20;35.42;96195.34;5042285;28;20197;-79
2022/05/07 07:17:16;;;;;;;5.20;2.60;;;;;;;21.98;34.31;96201.03;5027804;28;20174;-79
2022/05/07 07:19:42;;;;;;;3.33;2.90;;;;;;;22.61;33.56;96202.22;5026352;28;20247;-79
2022/05/07 07:22:07;;;;;;;10.00;6.55;;;;;;;23.16;33.12;96199.25;5045148;28;20182;-78
2022/05/07 07:24:32;;;;;;;6.90;3.22;;;;;;;22.59;34.42;96203.44;5041811;28;20212;-81
2022/05/07 07:26:58;;;;;;;4.43;2.78;;;;;;;23.04;32.99;96198.25;5041555;28;20194;-81
2022/05/07 07:29:23;;;;;;;4.50;3.47;;;;;;;20.68;37.00;96198.59;5025632;28;20198;-81
2022/05/07 07:31:48;;;;;;;8.07;4.93;;;;;;;21.07;36.40;96197.94;5059599;28;20196;-81
2022/05/07 07:34:14;;;;;;;8.35;6.53;;;;;;;20.36;38.74;96195.50;5023369;28;20564;-80
2022/05/07 07:36:39;;;;;;;5.57;3.85;;;;;;;19.91;39.60;96192.31;5042255;28;20181;-80
2022/05/07 07:39:07;;;;;;;5.28;3.13;;;;;;;19.70;40.44;96189.69;5041848;28;20231;-80
2022/05/07 07:41:34;;;;;;;4.80;3.33;;;;;;;18.08;44.97;96198.53;5026081;28;20180;-80
2022/05/07 07:43:59;;;;;;;3.97;3.53;;;;;;;17.00;46.95;96195.97;5025141;28;20555;-80
2022/05/07 07:49:09;;;;;;;7.00;3.63;;;;;;;17.80;45.17;96191.22;5044978;28;20716;-80
2022/05/07 07:51:34;;;;;;;5.65;4.32;;;;;;;17.16;47.69;96195.91;5026152;28;20264;-80
2022/05/07 07:53:59;;;;;;;5.72;3.70;;;;;;;16.95;48.50;96195.66;5041882;28;20177;-80
2022/05/07 07:56:25;;;;;;;6.95;4.70;;;;;;;16.67;49.48;96188.19;5025568;28;20177;-81
2022/05/07 07:58:51;;;;;;;5.03;3.80;;;;;;;16.53;50.27;96191.53;5041607;28;20185;-80
2022/05/07 08:01:16;;;;;;;5.78;4.28;;;;;;;16.48;49.42;96185.97;5025505;28;20182;-80
2022/05/07 08:03:42;;;;;;;6.63;4.50;;;;;;;15.79;53.17;96185.59;5040464;28;20612;-80
2022/05/07 08:06:07;;;;;;;7.30;4.47;;;;;;;15.93;52.96;96180.69;5041138;28;20655;-80
2022/05/07 08:14:00;;;;;;;6.25;4.30;;;;;;;16.59;48.89;96182.97;5043332;28;20197;-80
2022/05/07 08:16:26;;;;;;;7.85;4.43;;;;;;;16.37;50.39;96189.78;5025100;28;20578;-81
2022/05/07 08:18:52;;;;;;;4.75;4.22;;;;;;;15.99;51.13;96183.47;5024746;28;20180;-80
2022/05/07 08:21:18;;;;;;;6.25;4.07;;;;;;;16.74;47.99;96188.38;5025099;28;20277;-81
2022/05/07 08:23:43;;;;;;;4.18;3.10;;;;;;;16.94;49.43;96181.72;5022981;28;20243;-79
2022/05/07 08:26:09;;;;;;;6.82;4.20;;;;;;;17.04;47.59;96194.63;5024039;28;20214;-80
2022/05/07 08:28:36;;;;;;;3.45;3.15;;;;;;;16.61;45.35;96188.09;5023461;28;20240;-77
2022/05/07 08:31:02;;;;;;;8.52;3.47;;;;;;;16.76;46.13;96198.69;5040379;28;20178;-79
2022/05/07 08:33:28;;;;;;;7.05;3.60;;;;;;;16.15;47.98;96187.84;5024583;28;20273;-80
2022/05/07 08:35:54;;;;;;;4.97;3.83;;;;;;;16.16;48.69;96192.09;5041008;28;20281;-80
2022/05/07 08:38:19;;;;;;;3.85;3.47;;;;;;;16.35;47.79;96189.13;5017604;28;20198;-80
2022/05/07 08:40:44;;;;;;;5.43;3.35;;;;;;;16.53;48.02;96188.94;5044114;28;20194;-80
2022/05/07 08:43:10;;;;;;;4.15;3.28;;;;;;;16.33;48.77;96191.09;5038719;28;20547;-80
2022/05/07 08:45:36;;;;;;;4.63;3.70;;;;;;;16.81;48.58;96189.34;5022300;28;20252;-79
2022/05/07 08:48:02;;;;;;;4.68;3.78;;;;;;;16.98;49.16;96190.91;5022373;28;20559;-80
2022/05/07 08:50:27;;;;;;;3.80;3.28;;;;;;;17.09;46.30;96194.94;5038149;28;20188;-80
2022/05/07 08:52:54;;;;;;;3.58;2.97;;;;;;;17.65;45.17;96192.94;5021732;28;20205;-82
2022/05/07 08:55:21;;;;;;;4.22;3.70;;;;;;;16.77;48.16;96192.47;5039670;28;20202;-81
2022/05/07 08:57:49;;;;;;;4.07;3.47;;;;;;;16.96;45.52;96195.50;5039136;28;20174;-81
2022/05/07 09:00:19;;;;;;;5.57;3.38;;;;;;;16.89;47.55;96191.13;5022096;28;20277;-82
2022/05/07 09:02:48;;;;;;;3.50;3.20;;;;;;;17.15;47.28;96190.81;5000817;28;20278;-81
2022/05/07 09:05:18;;;;;;;4.20;3.30;;;;;;;17.04;45.09;96188.56;5002415;28;20703;-81
2022/05/07 09:07:53;;;;;;;5.60;2.95;;;;;;;16.84;45.42;96190.78;5019990;28;20206;-81
2022/05/07 09:10:19;;;;;;;5.35;2.83;;;;;;;16.66;43.25;96189.19;5004003;28;20593;-81
2022/05/07 09:12:45;;;;;;;6.07;2.92;;;;;;;16.63;42.42;96183.47;5003919;28;20524;-81
2022/05/07 09:15:10;;;;;;;3.45;3.05;;;;;;;16.86;44.47;96197.50;5019856;28;20694;-82
2022/05/07 09:17:36;;;;;;;5.03;2.22;;;;;;;16.90;42.61;96196.19;5020318;28;20190;-81
2022/05/07 09:20:13;;;;;;;4.95;2.60;;;;;;;16.90;40.92;96187.50;5037375;28;20182;-82
2022/05/07 09:22:55;;;;;;;3.75;2.17;;;;;;;16.69;40.99;96188.06;5007067;28;20205;-80
2022/05/07 09:25:25;;;;;;;3.63;2.97;;;;;;;16.83;43.39;96191.78;5008237;28;20513;-78
2022/05/07 09:27:54;;;;;;;3.03;2.67;;;;;;;17.15;41.70;96189.00;5025963;28;20250;-79
2022/05/07 09:30:27;;;;;;;3.22;2.70;;;;;;;17.65;43.91;96190.31;5009976;28;20197;-80
2022/05/07 09:32:55;;;;;;;4.30;2.60;;;;;;;17.37;42.10;96183.94;5022747;28;20181;-82
2022/05/07 09:38:12;;;;;;;2.88;2.15;;;;;;;17.83;43.47;96188.22;5023435;28;20667;-81
2022/05/07 09:40:39;;;;;;;2.65;2.03;;;;;;;17.93;40.58;96184.53;5003832;28;20178;-81
2022/05/07 09:43:05;;;;;;;3.72;2.38;;;;;;;17.65;41.68;96173.72;5004854;28;20204;-80
2022/05/07 09:45:31;;;;;;;2.38;2.00;;;;;;;17.90;39.74;96182.28;5004425;28;20194;-79
2022/05/07 09:48:00;;;;;;;3.70;2.15;;;;;;;18.09;41.56;96179.94;5005257;28;20659;-79
2022/05/07 09:50:47;;;;;;;3.50;2.45;;;;;;;18.26;41.23;96183.25;5022066;28;20174;-80
2022/05/07 09:58:48;;;;;;;4.85;2.88;;;;;;;18.42;40.30;96184.88;5038835;28;20182;-79
2022/05/07 10:01:22;;;;;;;3.20;1.98;;;;;;;18.41;39.01;96183.25;5020212;28;20179;-79
2022/05/07 10:04:06;;;;;;;4.55;2.20;;;;;;;17.95;38.72;96179.94;5038027;28;20718;-80
2022/05/07 10:07:09;;;;;;;8.82;1.90;;;;;;;17.88;38.15;96185.09;5021311;28;20284;-79
2022/05/07 10:09:41;;;;;;;1.77;1.67;;;;;;;18.13;38.22;96187.50;5040845;28;20189;-80
2022/05/07 10:12:07;;;;;;;3.80;2.03;;;;;;;18.54;36.03;96174.72;5008559;28;20272;-80
2022/05/07 10:14:32;;;;;;;4.93;2.38;;;;;;;18.16;36.99;96174.81;5008266;28;20221;-80
2022/05/07 10:17:21;;;;;;;2.78;1.92;;;;;;;18.94;37.24;96170.84;5025470;28;20171;-80
2022/05/07 10:19:49;;;;;;;3.03;1.63;;;;;;;19.38;37.16;96165.44;5009127;28;20265;-79
2022/05/07 10:22:25;;;;;;;2.25;1.80;;;;;;;19.52;35.85;96171.66;5032793;28;20260;-80
2022/05/07 10:25:07;;;;;;;4.75;1.85;;;;;;;19.77;34.90;96172.13;5043613;28;20346;-79
2022/05/07 10:27:37;;;;;;;5.72;2.67;;;;;;;19.28;34.84;96167.56;5038108;28;20210;-79
2022/05/07 10:30:08;;;;;;;2.40;2.20;;;;;;;18.64;35.33;96172.63;5025261;28;20182;-79
2022/05/07 10:33:03;;;;;;;5.97;3.33;;;;;;;18.66;37.69;96166.25;5024932;28;20609;-80
2022/05/07 10:35:54;;;;;;;5.28;2.47;;;;;;;19.13;35.87;96162.34;5037912;28;20552;-81
2022/05/07 10:38:23;;;;;;;2.63;2.33;;;;;;;18.87;36.30;96157.59;5019709;28;20174;-78
2022/05/07 10:40:49;;;;;;;4.18;3.05;;;;;;;18.84;38.36;96165.03;5019898;28;20232;-79
2022/05/07 10:43:36;;;;;;;4.22;2.88;;;;;;;18.81;36.85;96158.31;5037398;28;20155;-79
2022/05/07 10:46:06;;;;;;;3.10;2.80;;;;;;;19.11;37.54;96161.72;5039121;28;20265;-81
2022/05/07 10:48:48;;;;;;;3.88;3.15;;;;;;;19.61;37.74;96153.94;5004055;28;20234;-78
2022/05/07 10:51:27;;;;;;;4.18;2.60;;;;;;;19.20;39.32;96152.72;5030260;28;20194;-81
2022/05/07 10:53:52;;;;;;;4.00;2.70;;;;;;;19.33;38.62;96156.47;5013558;28;20182;-79
2022/05/07 10:56:20;;;;;;;5.30;3.30;;;;;;;18.61;39.74;96157.22;5030545;28;20207;-79
2022/05/07 10:58:47;;;;;;;4.85;3.42;;;;;;;18.08;41.49;96153.84;5011830;28;20632;-81
2022/05/07 11:01:12;;;;;;;5.22;3.20;;;;;;;17.78;40.79;96158.25;5002139;28;20185;-76
2022/05/07 11:03:38;;;;;;;2.83;2.60;;;;;;;17.91;40.37;96149.75;5001998;28;20171;-80
2022/05/07 11:06:03;;;;;;;4.70;2.60;;;;;;;17.72;41.54;96151.88;5021014;28;20413;-80
2022/05/07 11:08:30;;;;;;;4.22;2.42;;;;;;;17.57;41.25;96158.84;5021490;28;20195;-80
2022/05/07 11:11:10;;;;;;;3.00;2.47;;;;;;;17.04;43.18;96146.59;5005373;28;20236;-80
2022/05/07 11:13:51;;;;;;;4.47;2.83;;;;;;;16.96;42.23;96153.53;5003951;28;20189;-80
2022/05/07 11:16:17;;;;;;;2.47;2.28;;;;;;;17.31;41.85;96147.88;5020665;28;20191;-81
2022/05/07 11:18:53;;;;;;;4.72;2.33;;;;;;;17.18;39.48;96149.28;5003339;28;20198;-80
2022/05/07 11:21:23;;;;;;;3.92;1.98;;;;;;;17.61;39.58;96144.41;5020144;28;20200;-80
2022/05/07 11:24:07;;;;;;;2.65;2.38;;;;;;;17.73;39.05;96150.06;5002803;28;20210;-78
2022/05/07 11:26:32;;;;;;;6.53;3.33;;;;;;;17.46;38.16;96151.41;5004282;28;20202;-78
2022/05/07 11:28:57;;;;;;;3.80;2.30;;;;;;;17.82;36.69;96144.56;5019753;28;20269;-79
2022/05/07 11:31:28;;;;;;;2.65;2.03;;;;;;;18.07;36.84;96147.78;5021259;28;20213;-79
2022/05/07 11:34:00;;;;;;;5.43;2.63;;;;;;;18.08;36.99;96140.72;5003515;28;20193;-79
2022/05/07 11:36:26;;;;;;;3.22;2.25;;;;;;;17.72;39.02;96137.94;5038671;28;20170;-79
2022/05/07 11:38:56;;;;;;;2.53;1.92;;;;;;;18.29;36.83;96132.94;5020910;28;20655;-79
2022/05/07 11:41:22;;;;;;;3.40;2.35;;;;;;;18.73;37.01;96134.75;5020926;28;20179;-79
2022/05/07 11:46:46;;;;;;;4.72;2.42;;;;;;;18.32;37.67;96135.19;5023442;28;20216;-79
2022/05/07 11:49:12;;;;;;;3.72;1.85;;;;;;;18.14;39.01;96132.13;5020300;28;20551;-79
2022/05/07 11:51:37;;;;;;;3.13;2.20;;;;;;;18.74;38.10;96127.69;5004726;28;20229;-79
2022/05/07 11:54:09;;;;;;;4.05;3.28;;;;;;;19.00;37.24;96121.91;5004130;28;20651;-79
2022/05/07 11:56:47;;;;;;;4.78;2.88;;;;;;;18.30;37.15;96120.63;5003690;28;20186;-79
2022/05/07 11:59:14;;;;;;;3.88;2.80;;;;;;;18.16;36.79;96116.97;5019736;28;20197;-79
2022/05/07 12:01:39;;;;;;;3.08;2.28;;;;;;;17.99;37.82;96120.75;5003427;28;20583;-79
2022/05/07 12:04:11;;;;;;;4.53;2.50;;;;;;;17.61;39.65;96120.75;5018794;28;20174;-79
2022/05/07 12:06:37;;;;;;;3.83;2.30;;;;;;;17.58;39.64;96113.25;5003792;28;20194;-79